sensor_id;sensor_type;location;lat;lon;timestamp;P1;durP1;ratioP1;P2;durP2;ratioP2
60718;SDS011;46567;51.660;5.824;2023-05-31T00:02:10;6.4;;;5.6;;
60718;SDS011;46567;51.660;5.824;2023-05-31T00:07:10;6.3;;;5.2;;
60718;SDS011;46567;51.660;5.824;2023-05-31T00:12:10;6.1;;;5.4;;
60718;SDS011;46567;51.660;5.824;2023-05-31T00:17:10;7.1;;;5.6;;
60718;SDS011;46567;51.660;5.824;2023-05-31T00:22:10;6.4;;;5.4;;
60718;SDS011;46567;51.660;5.824;2023-05-31T00:27:10;6.7;;;5.5;;
60718;SDS011;46567;51.660;5.824;2023-05-31T00:32:10;6.2;;;5.1;;
60718;SDS011;46567;51.660;5.824;2023-05-31T00:37:10;7.6;;;6.1;;
60718;SDS011;46567;51.660;5.824;2023-05-31T00:42:10;7.0;;;5.4;;
60718;SDS011;46567;51.660;5.824;2023-05-31T00:47:10;6.1;;;5.5;;
60718;SDS011;46567;51.660;5.824;2023-05-31T00:52:10;7.9;;;5.5;;
60718;SDS011;46567;51.660;5.824;2023-05-31T00:57:10;8.5;;;5.5;;
60718;SDS011;46567;51.660;5.824;2023-05-31T01:02:10;7.3;;;5.6;;
60718;SDS011;46567;51.660;5.824;2023-05-31T01:07:10;7.8;;;5.5;;
60718;SDS011;46567;51.660;5.824;2023-05-31T01:12:32;7.4;;;5.1;;
60718;SDS011;46567;51.660;5.824;2023-05-31T01:17:12;6.6;;;5.6;;
60718;SDS011;46567;51.660;5.824;2023-05-31T01:22:25;6.4;;;5.3;;
60718;SDS011;46567;51.660;5.824;2023-05-31T01:27:10;7.1;;;5.6;;
60718;SDS011;46567;51.660;5.824;2023-05-31T01:32:10;8.9;;;6.2;;
60718;SDS011;46567;51.660;5.824;2023-05-31T01:37:10;6.5;;;5.7;;
60718;SDS011;46567;51.660;5.824;2023-05-31T01:42:10;8.8;;;5.4;;
60718;SDS011;46567;51.660;5.824;2023-05-31T01:47:10;7.9;;;6.2;;
60718;SDS011;46567;51.660;5.824;2023-05-31T01:52:10;7.8;;;5.9;;
60718;SDS011;46567;51.660;5.824;2023-05-31T01:57:10;7.7;;;6.0;;
60718;SDS011;46567;51.660;5.824;2023-05-31T02:02:10;7.5;;;6.0;;
60718;SDS011;46567;51.660;5.824;2023-05-31T02:07:10;8.3;;;5.5;;
60718;SDS011;46567;51.660;5.824;2023-05-31T02:12:10;7.3;;;6.2;;
60718;SDS011;46567;51.660;5.824;2023-05-31T02:17:10;7.9;;;5.9;;
60718;SDS011;46567;51.660;5.824;2023-05-31T02:22:10;9.8;;;6.2;;
60718;SDS011;46567;51.660;5.824;2023-05-31T02:27:10;8.0;;;5.9;;
60718;SDS011;46567;51.660;5.824;2023-05-31T02:32:10;8.1;;;6.2;;
60718;SDS011;46567;51.660;5.824;2023-05-31T02:37:10;8.3;;;6.3;;
60718;SDS011;46567;51.660;5.824;2023-05-31T02:42:10;9.4;;;6.0;;
60718;SDS011;46567;51.660;5.824;2023-05-31T02:47:10;10.1;;;6.0;;
60718;SDS011;46567;51.660;5.824;2023-05-31T02:52:10;9.5;;;6.9;;
60718;SDS011;46567;51.660;5.824;2023-05-31T02:57:10;9.6;;;6.3;;
60718;SDS011;46567;51.660;5.824;2023-05-31T03:02:10;8.9;;;6.5;;
60718;SDS011;46567;51.660;5.824;2023-05-31T03:07:10;9.7;;;7.0;;
60718;SDS011;46567;51.660;5.824;2023-05-31T03:12:10;8.5;;;6.7;;
60718;SDS011;46567;51.660;5.824;2023-05-31T03:17:10;9.0;;;6.3;;
60718;SDS011;46567;51.660;5.824;2023-05-31T03:22:10;9.8;;;7.1;;
60718;SDS011;46567;51.660;5.824;2023-05-31T03:27:10;9.5;;;6.9;;
60718;SDS011;46567;51.660;5.824;2023-05-31T03:32:10;10.5;;;6.7;;
60718;SDS011;46567;51.660;5.824;2023-05-31T03:37:10;13.7;;;7.2;;
60718;SDS011;46567;51.660;5.824;2023-05-31T03:42:10;12.0;;;7.4;;
60718;SDS011;46567;51.660;5.824;2023-05-31T03:47:10;11.9;;;7.7;;
60718;SDS011;46567;51.660;5.824;2023-05-31T03:52:10;10.4;;;7.1;;
60718;SDS011;46567;51.660;5.824;2023-05-31T03:57:10;10.6;;;7.2;;
60718;SDS011;46567;51.660;5.824;2023-05-31T04:02:10;12.6;;;7.8;;
60718;SDS011;46567;51.660;5.824;2023-05-31T04:07:10;12.2;;;7.9;;
60718;SDS011;46567;51.660;5.824;2023-05-31T04:12:10;11.4;;;8.0;;
60718;SDS011;46567;51.660;5.824;2023-05-31T04:17:10;10.8;;;8.0;;
60718;SDS011;46567;51.660;5.824;2023-05-31T04:22:10;12.8;;;8.3;;
60718;SDS011;46567;51.660;5.824;2023-05-31T04:27:10;12.3;;;8.7;;
60718;SDS011;46567;51.660;5.824;2023-05-31T04:32:10;14.4;;;8.6;;
60718;SDS011;46567;51.660;5.824;2023-05-31T04:37:10;13.7;;;8.9;;
60718;SDS011;46567;51.660;5.824;2023-05-31T04:42:10;13.5;;;8.4;;
60718;SDS011;46567;51.660;5.824;2023-05-31T04:47:10;12.6;;;8.5;;
60718;SDS011;46567;51.660;5.824;2023-05-31T04:52:10;13.9;;;8.5;;
60718;SDS011;46567;51.660;5.824;2023-05-31T04:57:10;13.8;;;9.1;;
60718;SDS011;46567;51.660;5.824;2023-05-31T05:02:10;12.5;;;8.5;;
60718;SDS011;46567;51.660;5.824;2023-05-31T05:07:10;13.0;;;8.8;;
60718;SDS011;46567;51.660;5.824;2023-05-31T05:12:10;15.6;;;9.0;;
60718;SDS011;46567;51.660;5.824;2023-05-31T05:17:10;13.7;;;8.9;;
60718;SDS011;46567;51.660;5.824;2023-05-31T05:22:10;14.5;;;9.1;;
60718;SDS011;46567;51.660;5.824;2023-05-31T05:27:10;13.1;;;8.5;;
60718;SDS011;46567;51.660;5.824;2023-05-31T05:32:10;14.6;;;9.1;;
60718;SDS011;46567;51.660;5.824;2023-05-31T05:37:10;13.3;;;8.6;;
60718;SDS011;46567;51.660;5.824;2023-05-31T05:42:10;13.6;;;9.3;;
60718;SDS011;46567;51.660;5.824;2023-05-31T05:47:10;14.1;;;8.9;;
60718;SDS011;46567;51.660;5.824;2023-05-31T05:52:10;13.4;;;8.9;;
60718;SDS011;46567;51.660;5.824;2023-05-31T05:57:10;16.3;;;9.8;;
60718;SDS011;46567;51.660;5.824;2023-05-31T06:02:10;14.9;;;9.2;;
60718;SDS011;46567;51.660;5.824;2023-05-31T06:07:10;14.0;;;9.5;;
60718;SDS011;46567;51.660;5.824;2023-05-31T06:12:10;15.2;;;9.7;;
60718;SDS011;46567;51.660;5.824;2023-05-31T06:17:10;15.8;;;9.5;;
60718;SDS011;46567;51.660;5.824;2023-05-31T06:22:10;14.5;;;8.9;;
60718;SDS011;46567;51.660;5.824;2023-05-31T06:27:10;17.2;;;9.7;;
60718;SDS011;46567;51.660;5.824;2023-05-31T06:32:10;13.8;;;9.8;;
60718;SDS011;46567;51.660;5.824;2023-05-31T06:37:10;14.0;;;9.3;;
60718;SDS011;46567;51.660;5.824;2023-05-31T06:42:10;15.9;;;8.9;;
60718;SDS011;46567;51.660;5.824;2023-05-31T06:47:10;14.5;;;8.8;;
60718;SDS011;46567;51.660;5.824;2023-05-31T06:52:10;15.1;;;9.4;;
60718;SDS011;46567;51.660;5.824;2023-05-31T06:57:10;12.7;;;8.5;;
60718;SDS011;46567;51.660;5.824;2023-05-31T07:02:10;13.9;;;8.6;;
60718;SDS011;46567;51.660;5.824;2023-05-31T07:07:10;17.2;;;9.6;;
60718;SDS011;46567;51.660;5.824;2023-05-31T07:12:10;12.9;;;8.7;;
60718;SDS011;46567;51.660;5.824;2023-05-31T07:17:10;13.0;;;8.2;;
60718;SDS011;46567;51.660;5.824;2023-05-31T07:22:10;12.4;;;8.1;;
60718;SDS011;46567;51.660;5.824;2023-05-31T07:27:10;13.2;;;8.0;;
60718;SDS011;46567;51.660;5.824;2023-05-31T07:32:10;13.3;;;8.2;;
60718;SDS011;46567;51.660;5.824;2023-05-31T07:37:10;12.6;;;8.2;;
60718;SDS011;46567;51.660;5.824;2023-05-31T07:42:10;12.3;;;8.2;;
60718;SDS011;46567;51.660;5.824;2023-05-31T07:47:10;11.7;;;8.0;;
60718;SDS011;46567;51.660;5.824;2023-05-31T07:52:10;12.4;;;8.0;;
60718;SDS011;46567;51.660;5.824;2023-05-31T07:57:10;16.6;;;8.4;;
60718;SDS011;46567;51.660;5.824;2023-05-31T08:07:10;14.9;;;8.1;;
60718;SDS011;46567;51.660;5.824;2023-05-31T08:12:10;12.8;;;6.9;;
60718;SDS011;46567;51.660;5.824;2023-05-31T08:17:10;13.4;;;7.3;;
60718;SDS011;46567;51.660;5.824;2023-05-31T08:22:10;10.7;;;7.6;;
60718;SDS011;46567;51.660;5.824;2023-05-31T08:27:10;14.2;;;7.3;;
60718;SDS011;46567;51.660;5.824;2023-05-31T08:32:10;11.9;;;6.9;;
60718;SDS011;46567;51.660;5.824;2023-05-31T08:37:10;11.0;;;6.2;;
60718;SDS011;46567;51.660;5.824;2023-05-31T08:42:18;12.2;;;6.9;;
60718;SDS011;46567;51.660;5.824;2023-05-31T08:47:12;12.5;;;6.9;;
60718;SDS011;46567;51.660;5.824;2023-05-31T08:52:10;9.7;;;6.5;;
60718;SDS011;46567;51.660;5.824;2023-05-31T08:57:10;10.8;;;6.5;;
60718;SDS011;46567;51.660;5.824;2023-05-31T09:02:10;9.7;;;6.0;;
60718;SDS011;46567;51.660;5.824;2023-05-31T09:07:10;11.4;;;6.7;;
60718;SDS011;46567;51.660;5.824;2023-05-31T09:12:10;11.7;;;6.3;;
60718;SDS011;46567;51.660;5.824;2023-05-31T09:17:10;12.3;;;5.7;;
60718;SDS011;46567;51.660;5.824;2023-05-31T09:22:10;8.9;;;5.1;;
60718;SDS011;46567;51.660;5.824;2023-05-31T09:27:10;12.6;;;6.0;;
60718;SDS011;46567;51.660;5.824;2023-05-31T09:32:10;9.9;;;5.7;;
60718;SDS011;46567;51.660;5.824;2023-05-31T09:37:11;10.1;;;7.0;;
60718;SDS011;46567;51.660;5.824;2023-05-31T09:42:11;10.1;;;5.4;;
60718;SDS011;46567;51.660;5.824;2023-05-31T09:47:10;9.4;;;6.2;;
60718;SDS011;46567;51.660;5.824;2023-05-31T09:52:11;9.2;;;5.3;;
60718;SDS011;46567;51.660;5.824;2023-05-31T09:57:10;9.0;;;5.1;;
60718;SDS011;46567;51.660;5.824;2023-05-31T10:02:10;8.7;;;4.5;;
60718;SDS011;46567;51.660;5.824;2023-05-31T10:07:10;12.3;;;5.4;;
60718;SDS011;46567;51.660;5.824;2023-05-31T10:12:10;9.4;;;4.8;;
60718;SDS011;46567;51.660;5.824;2023-05-31T10:17:13;10.0;;;5.7;;
60718;SDS011;46567;51.660;5.824;2023-05-31T10:22:10;8.9;;;4.9;;
60718;SDS011;46567;51.660;5.824;2023-05-31T10:27:29;9.0;;;5.1;;
60718;SDS011;46567;51.660;5.824;2023-05-31T10:32:15;10.2;;;3.7;;
60718;SDS011;46567;51.660;5.824;2023-05-31T10:37:10;9.3;;;4.8;;
60718;SDS011;46567;51.660;5.824;2023-05-31T10:42:14;11.8;;;4.7;;
60718;SDS011;46567;51.660;5.824;2023-05-31T10:47:10;8.5;;;4.3;;
60718;SDS011;46567;51.660;5.824;2023-05-31T10:52:10;8.4;;;4.2;;
60718;SDS011;46567;51.660;5.824;2023-05-31T11:02:10;12.4;;;4.3;;
60718;SDS011;46567;51.660;5.824;2023-05-31T11:07:12;8.9;;;3.3;;
60718;SDS011;46567;51.660;5.824;2023-05-31T11:12:11;5.6;;;3.1;;
60718;SDS011;46567;51.660;5.824;2023-05-31T11:17:20;6.9;;;2.6;;
60718;SDS011;46567;51.660;5.824;2023-05-31T11:22:14;5.4;;;2.8;;
60718;SDS011;46567;51.660;5.824;2023-05-31T11:27:12;6.5;;;2.8;;
60718;SDS011;46567;51.660;5.824;2023-05-31T11:32:10;7.8;;;2.5;;
60718;SDS011;46567;51.660;5.824;2023-05-31T11:37:10;6.9;;;3.1;;
60718;SDS011;46567;51.660;5.824;2023-05-31T11:42:10;6.5;;;2.7;;
60718;SDS011;46567;51.660;5.824;2023-05-31T11:47:11;10.3;;;2.5;;
60718;SDS011;46567;51.660;5.824;2023-05-31T11:52:14;6.7;;;2.6;;
60718;SDS011;46567;51.660;5.824;2023-05-31T11:57:10;5.6;;;2.5;;
60718;SDS011;46567;51.660;5.824;2023-05-31T12:02:10;5.8;;;2.5;;
60718;SDS011;46567;51.660;5.824;2023-05-31T12:07:11;6.7;;;2.5;;
60718;SDS011;46567;51.660;5.824;2023-05-31T12:12:11;5.4;;;2.3;;
60718;SDS011;46567;51.660;5.824;2023-05-31T12:17:10;5.5;;;2.3;;
60718;SDS011;46567;51.660;5.824;2023-05-31T12:22:10;4.9;;;2.4;;
60718;SDS011;46567;51.660;5.824;2023-05-31T12:27:10;6.0;;;2.3;;
60718;SDS011;46567;51.660;5.824;2023-05-31T12:32:10;6.8;;;2.4;;
60718;SDS011;46567;51.660;5.824;2023-05-31T12:37:10;5.2;;;2.9;;
60718;SDS011;46567;51.660;5.824;2023-05-31T12:42:10;6.3;;;3.0;;
60718;SDS011;46567;51.660;5.824;2023-05-31T12:47:10;6.4;;;2.9;;
60718;SDS011;46567;51.660;5.824;2023-05-31T12:52:10;5.5;;;2.6;;
60718;SDS011;46567;51.660;5.824;2023-05-31T12:57:10;5.6;;;2.2;;
60718;SDS011;46567;51.660;5.824;2023-05-31T13:02:10;8.5;;;2.7;;
60718;SDS011;46567;51.660;5.824;2023-05-31T13:07:10;6.7;;;2.7;;
60718;SDS011;46567;51.660;5.824;2023-05-31T13:12:10;7.0;;;2.9;;
60718;SDS011;46567;51.660;5.824;2023-05-31T13:22:11;6.7;;;2.7;;
60718;SDS011;46567;51.660;5.824;2023-05-31T13:27:10;7.9;;;2.4;;
60718;SDS011;46567;51.660;5.824;2023-05-31T13:32:10;7.3;;;3.0;;
60718;SDS011;46567;51.660;5.824;2023-05-31T13:37:10;5.4;;;2.4;;
60718;SDS011;46567;51.660;5.824;2023-05-31T13:42:10;8.3;;;3.0;;
60718;SDS011;46567;51.660;5.824;2023-05-31T13:47:10;5.4;;;2.8;;
60718;SDS011;46567;51.660;5.824;2023-05-31T13:52:10;5.9;;;2.3;;
60718;SDS011;46567;51.660;5.824;2023-05-31T13:57:10;6.8;;;2.8;;
60718;SDS011;46567;51.660;5.824;2023-05-31T14:02:10;7.1;;;2.6;;
60718;SDS011;46567;51.660;5.824;2023-05-31T14:07:10;7.3;;;2.9;;
60718;SDS011;46567;51.660;5.824;2023-05-31T14:12:10;6.9;;;2.7;;
60718;SDS011;46567;51.660;5.824;2023-05-31T14:17:10;6.4;;;2.7;;
60718;SDS011;46567;51.660;5.824;2023-05-31T14:22:10;5.7;;;2.6;;
60718;SDS011;46567;51.660;5.824;2023-05-31T14:27:10;5.2;;;2.6;;
60718;SDS011;46567;51.660;5.824;2023-05-31T14:32:10;7.4;;;2.6;;
60718;SDS011;46567;51.660;5.824;2023-05-31T14:37:10;7.5;;;2.8;;
60718;SDS011;46567;51.660;5.824;2023-05-31T14:42:10;4.8;;;2.3;;
60718;SDS011;46567;51.660;5.824;2023-05-31T14:47:10;6.4;;;2.8;;
60718;SDS011;46567;51.660;5.824;2023-05-31T14:52:10;3.5;;;2.4;;
60718;SDS011;46567;51.660;5.824;2023-05-31T14:57:10;5.1;;;2.7;;
60718;SDS011;46567;51.660;5.824;2023-05-31T15:02:10;6.7;;;2.4;;
60718;SDS011;46567;51.660;5.824;2023-05-31T15:07:10;5.1;;;2.8;;
60718;SDS011;46567;51.660;5.824;2023-05-31T15:12:10;4.7;;;2.2;;
60718;SDS011;46567;51.660;5.824;2023-05-31T15:17:10;5.2;;;2.4;;
60718;SDS011;46567;51.660;5.824;2023-05-31T15:22:10;4.5;;;2.3;;
60718;SDS011;46567;51.660;5.824;2023-05-31T15:27:10;5.5;;;2.3;;
60718;SDS011;46567;51.660;5.824;2023-05-31T15:32:10;7.2;;;2.4;;
60718;SDS011;46567;51.660;5.824;2023-05-31T15:37:10;5.5;;;2.5;;
60718;SDS011;46567;51.660;5.824;2023-05-31T15:42:10;4.2;;;2.4;;
60718;SDS011;46567;51.660;5.824;2023-05-31T15:47:10;8.9;;;2.4;;
60718;SDS011;46567;51.660;5.824;2023-05-31T15:52:10;7.2;;;2.6;;
60718;SDS011;46567;51.660;5.824;2023-05-31T15:57:10;7.4;;;2.5;;
60718;SDS011;46567;51.660;5.824;2023-05-31T16:02:10;4.7;;;2.5;;
60718;SDS011;46567;51.660;5.824;2023-05-31T16:07:10;4.6;;;2.2;;
60718;SDS011;46567;51.660;5.824;2023-05-31T16:12:10;4.3;;;2.3;;
60718;SDS011;46567;51.660;5.824;2023-05-31T16:17:10;6.9;;;2.6;;
60718;SDS011;46567;51.660;5.824;2023-05-31T16:22:10;6.5;;;2.6;;
60718;SDS011;46567;51.660;5.824;2023-05-31T16:27:10;5.6;;;2.3;;
60718;SDS011;46567;51.660;5.824;2023-05-31T16:32:10;5.8;;;2.6;;
60718;SDS011;46567;51.660;5.824;2023-05-31T16:37:10;5.1;;;2.5;;
60718;SDS011;46567;51.660;5.824;2023-05-31T16:42:10;5.1;;;2.3;;
60718;SDS011;46567;51.660;5.824;2023-05-31T16:47:10;5.1;;;2.7;;
60718;SDS011;46567;51.660;5.824;2023-05-31T16:52:10;4.6;;;2.4;;
60718;SDS011;46567;51.660;5.824;2023-05-31T16:57:10;4.2;;;2.4;;
60718;SDS011;46567;51.660;5.824;2023-05-31T17:02:10;4.1;;;2.3;;
60718;SDS011;46567;51.660;5.824;2023-05-31T17:07:10;5.8;;;2.4;;
60718;SDS011;46567;51.660;5.824;2023-05-31T17:12:10;4.1;;;2.2;;
60718;SDS011;46567;51.660;5.824;2023-05-31T17:17:10;5.5;;;2.1;;
60718;SDS011;46567;51.660;5.824;2023-05-31T17:22:10;5.2;;;2.3;;
60718;SDS011;46567;51.660;5.824;2023-05-31T17:27:10;4.8;;;2.3;;
60718;SDS011;46567;51.660;5.824;2023-05-31T17:32:10;4.6;;;2.6;;
60718;SDS011;46567;51.660;5.824;2023-05-31T17:37:10;6.0;;;2.5;;
60718;SDS011;46567;51.660;5.824;2023-05-31T17:42:10;4.8;;;2.6;;
60718;SDS011;46567;51.660;5.824;2023-05-31T17:47:10;5.3;;;2.5;;
60718;SDS011;46567;51.660;5.824;2023-05-31T17:52:10;5.4;;;2.4;;
60718;SDS011;46567;51.660;5.824;2023-05-31T17:57:10;4.5;;;2.6;;
60718;SDS011;46567;51.660;5.824;2023-05-31T18:02:10;5.4;;;2.9;;
60718;SDS011;46567;51.660;5.824;2023-05-31T18:07:10;7.1;;;3.4;;
60718;SDS011;46567;51.660;5.824;2023-05-31T18:12:10;7.9;;;3.0;;
60718;SDS011;46567;51.660;5.824;2023-05-31T18:17:10;7.2;;;3.2;;
60718;SDS011;46567;51.660;5.824;2023-05-31T18:22:10;5.7;;;2.8;;
60718;SDS011;46567;51.660;5.824;2023-05-31T18:27:12;7.2;;;2.8;;
60718;SDS011;46567;51.660;5.824;2023-05-31T18:32:10;6.0;;;3.1;;
60718;SDS011;46567;51.660;5.824;2023-05-31T18:37:10;5.4;;;2.8;;
60718;SDS011;46567;51.660;5.824;2023-05-31T18:42:10;5.7;;;3.1;;
60718;SDS011;46567;51.660;5.824;2023-05-31T18:47:10;5.5;;;2.7;;
60718;SDS011;46567;51.660;5.824;2023-05-31T18:52:10;7.8;;;2.8;;
60718;SDS011;46567;51.660;5.824;2023-05-31T18:57:10;4.8;;;2.7;;
60718;SDS011;46567;51.660;5.824;2023-05-31T19:02:10;6.0;;;2.8;;
60718;SDS011;46567;51.660;5.824;2023-05-31T19:07:10;5.3;;;2.7;;
60718;SDS011;46567;51.660;5.824;2023-05-31T19:12:10;7.0;;;3.2;;
60718;SDS011;46567;51.660;5.824;2023-05-31T19:17:10;8.9;;;3.0;;
60718;SDS011;46567;51.660;5.824;2023-05-31T19:22:10;5.4;;;3.2;;
60718;SDS011;46567;51.660;5.824;2023-05-31T19:27:10;8.0;;;2.5;;
60718;SDS011;46567;51.660;5.824;2023-05-31T19:32:10;5.1;;;2.5;;
60718;SDS011;46567;51.660;5.824;2023-05-31T19:37:10;6.3;;;2.9;;
60718;SDS011;46567;51.660;5.824;2023-05-31T19:42:10;6.1;;;2.4;;
60718;SDS011;46567;51.660;5.824;2023-05-31T19:47:10;6.0;;;2.2;;
60718;SDS011;46567;51.660;5.824;2023-05-31T19:52:11;5.2;;;2.3;;
60718;SDS011;46567;51.660;5.824;2023-05-31T19:57:10;6.9;;;3.0;;
60718;SDS011;46567;51.660;5.824;2023-05-31T20:02:10;5.9;;;2.8;;
60718;SDS011;46567;51.660;5.824;2023-05-31T20:07:10;6.0;;;2.9;;
60718;SDS011;46567;51.660;5.824;2023-05-31T20:12:10;5.3;;;2.3;;
60718;SDS011;46567;51.660;5.824;2023-05-31T20:17:10;6.9;;;2.7;;
60718;SDS011;46567;51.660;5.824;2023-05-31T20:22:10;4.0;;;2.4;;
60718;SDS011;46567;51.660;5.824;2023-05-31T20:27:10;6.1;;;2.4;;
60718;SDS011;46567;51.660;5.824;2023-05-31T20:32:10;4.8;;;2.5;;
60718;SDS011;46567;51.660;5.824;2023-05-31T20:37:10;6.4;;;2.6;;
60718;SDS011;46567;51.660;5.824;2023-05-31T20:42:10;4.9;;;2.9;;
60718;SDS011;46567;51.660;5.824;2023-05-31T20:47:10;8.2;;;2.7;;
60718;SDS011;46567;51.660;5.824;2023-05-31T20:52:10;8.5;;;2.9;;
60718;SDS011;46567;51.660;5.824;2023-05-31T20:57:10;5.1;;;3.0;;
60718;SDS011;46567;51.660;5.824;2023-05-31T21:02:10;5.3;;;2.8;;
60718;SDS011;46567;51.660;5.824;2023-05-31T21:07:10;5.1;;;3.0;;
60718;SDS011;46567;51.660;5.824;2023-05-31T21:12:10;7.4;;;3.2;;
60718;SDS011;46567;51.660;5.824;2023-05-31T21:17:10;7.8;;;3.7;;
60718;SDS011;46567;51.660;5.824;2023-05-31T21:22:10;7.2;;;3.0;;
60718;SDS011;46567;51.660;5.824;2023-05-31T21:27:10;8.2;;;3.7;;
60718;SDS011;46567;51.660;5.824;2023-05-31T21:32:10;7.1;;;3.9;;
60718;SDS011;46567;51.660;5.824;2023-05-31T21:37:10;10.1;;;3.6;;
60718;SDS011;46567;51.660;5.824;2023-05-31T21:42:10;8.5;;;3.8;;
60718;SDS011;46567;51.660;5.824;2023-05-31T21:47:10;5.5;;;4.0;;
60718;SDS011;46567;51.660;5.824;2023-05-31T21:52:10;7.8;;;3.9;;
60718;SDS011;46567;51.660;5.824;2023-05-31T21:57:10;7.5;;;4.3;;
60718;SDS011;46567;51.660;5.824;2023-05-31T22:02:10;6.5;;;4.5;;
60718;SDS011;46567;51.660;5.824;2023-05-31T22:07:10;7.3;;;4.7;;
60718;SDS011;46567;51.660;5.824;2023-05-31T22:12:10;8.7;;;5.0;;
60718;SDS011;46567;51.660;5.824;2023-05-31T22:17:10;6.3;;;5.2;;
60718;SDS011;46567;51.660;5.824;2023-05-31T22:22:10;10.3;;;5.3;;
60718;SDS011;46567;51.660;5.824;2023-05-31T22:27:10;8.1;;;5.2;;
60718;SDS011;46567;51.660;5.824;2023-05-31T22:32:10;8.9;;;5.5;;
60718;SDS011;46567;51.660;5.824;2023-05-31T22:37:10;8.6;;;5.6;;
60718;SDS011;46567;51.660;5.824;2023-05-31T22:42:10;11.0;;;6.5;;
60718;SDS011;46567;51.660;5.824;2023-05-31T22:47:10;10.9;;;6.3;;
60718;SDS011;46567;51.660;5.824;2023-05-31T22:52:10;10.9;;;6.3;;
60718;SDS011;46567;51.660;5.824;2023-05-31T22:57:10;10.0;;;6.3;;
60718;SDS011;46567;51.660;5.824;2023-05-31T23:02:10;11.7;;;6.8;;
60718;SDS011;46567;51.660;5.824;2023-05-31T23:07:10;11.8;;;7.1;;
60718;SDS011;46567;51.660;5.824;2023-05-31T23:12:10;11.4;;;7.1;;
60718;SDS011;46567;51.660;5.824;2023-05-31T23:17:10;12.9;;;7.2;;
60718;SDS011;46567;51.660;5.824;2023-05-31T23:22:10;12.6;;;7.1;;
60718;SDS011;46567;51.660;5.824;2023-05-31T23:27:10;14.5;;;7.3;;
60718;SDS011;46567;51.660;5.824;2023-05-31T23:32:10;13.0;;;7.0;;
60718;SDS011;46567;51.660;5.824;2023-05-31T23:37:10;14.0;;;7.5;;
60718;SDS011;46567;51.660;5.824;2023-05-31T23:42:10;13.0;;;7.8;;
60718;SDS011;46567;51.660;5.824;2023-05-31T23:47:10;14.2;;;7.4;;
60718;SDS011;46567;51.660;5.824;2023-05-31T23:52:10;12.5;;;8.2;;
60718;SDS011;46567;51.660;5.824;2023-05-31T23:57:10;12.8;;;7.9;;
